createdAt,value
2023-02-26T00:01:28.510Z,12.23
2023-02-26T00:03:57.865Z,12.23
2023-02-26T00:06:26.856Z,12.23
2023-02-26T00:08:55.209Z,12.20
2023-02-26T00:11:23.216Z,12.16
2023-02-26T00:13:51.150Z,12.14
2023-02-26T00:16:24.584Z,12.18
2023-02-26T00:18:51.765Z,12.18
2023-02-26T00:21:20.992Z,12.19
2023-02-26T00:23:48.232Z,12.16
2023-02-26T00:26:15.486Z,12.18
2023-02-26T00:28:42.838Z,12.18
2023-02-26T00:31:10.554Z,12.16
2023-02-26T00:33:38.113Z,12.12
2023-02-26T00:36:22.874Z,12.13
2023-02-26T00:38:56.013Z,12.08
2023-02-26T00:41:23.193Z,12.02
2023-02-26T00:43:50.308Z,12.02
2023-02-26T00:46:23.827Z,12.02
2023-02-26T00:48:50.917Z,11.98
2023-02-26T00:51:41.750Z,11.98
2023-02-26T00:54:18.016Z,11.95
2023-02-26T00:56:44.939Z,11.91
2023-02-26T00:59:11.897Z,11.91
2023-02-26T01:01:38.994Z,11.87
2023-02-26T01:04:06.760Z,11.85
2023-02-26T01:06:35.571Z,11.84
2023-02-26T01:09:13.333Z,11.84
2023-02-26T01:11:40.461Z,11.83
2023-02-26T01:14:07.870Z,11.83
2023-02-26T01:16:50.911Z,11.82
2023-02-26T01:19:49.891Z,11.82
2023-02-26T01:22:25.729Z,11.79
2023-02-26T01:25:01.785Z,11.81
2023-02-26T01:27:28.904Z,11.80
2023-02-26T01:29:56.113Z,11.78
2023-02-26T01:32:23.138Z,11.76
2023-02-26T01:34:55.778Z,11.78
2023-02-26T01:37:34.663Z,11.76
2023-02-26T01:40:39.233Z,11.75
2023-02-26T01:43:13.227Z,11.72
2023-02-26T01:45:55.392Z,11.73
2023-02-26T01:48:37.449Z,11.74
2023-02-26T01:51:05.672Z,11.73
2023-02-26T01:53:32.650Z,11.72
2023-02-26T01:56:18.432Z,11.76
2023-02-26T01:58:49.470Z,11.75
2023-02-26T02:01:16.401Z,11.73
2023-02-26T02:03:43.825Z,11.76
2023-02-26T02:06:17.956Z,11.79
2023-02-26T02:08:45.876Z,11.80
2023-02-26T02:11:14.827Z,11.77
2023-02-26T02:13:57.122Z,11.78
2023-02-26T02:16:45.590Z,11.75
2023-02-26T02:19:38.119Z,11.74
2023-02-26T02:22:32.622Z,11.76
2023-02-26T02:25:25.322Z,11.74
2023-02-26T02:27:59.305Z,11.72
2023-02-26T02:30:58.461Z,11.70
2023-02-26T02:33:36.896Z,11.71
2023-02-26T02:36:13.749Z,11.72
2023-02-26T02:38:58.174Z,11.72
2023-02-26T02:41:32.713Z,11.71
2023-02-26T02:44:07.435Z,11.69
2023-02-26T02:46:43.566Z,11.69
2023-02-26T02:49:17.032Z,11.69
2023-02-26T02:52:01.927Z,11.69
2023-02-26T02:54:44.750Z,11.68
2023-02-26T02:57:20.114Z,11.69
2023-02-26T02:59:51.552Z,11.69
2023-02-26T03:02:35.952Z,11.69
2023-02-26T03:05:05.573Z,11.68
2023-02-26T03:07:36.979Z,11.58
2023-02-26T03:10:04.172Z,11.57
2023-02-26T03:12:34.023Z,11.51
2023-02-26T03:15:02.661Z,11.47
2023-02-26T03:17:48.088Z,11.46
2023-02-26T03:21:05.582Z,11.46
2023-02-26T03:23:46.856Z,11.42
2023-02-26T03:26:25.476Z,11.39
2023-02-26T03:28:59.366Z,11.39
2023-02-26T03:31:59.637Z,11.40
2023-02-26T03:34:43.456Z,11.39
2023-02-26T03:37:24.465Z,11.38
2023-02-26T03:39:56.437Z,11.37
2023-02-26T03:42:33.266Z,11.33
2023-02-26T03:45:22.827Z,11.31
2023-02-26T03:47:54.185Z,11.29
2023-02-26T03:50:34.394Z,11.28
2023-02-26T03:53:44.455Z,11.26
2023-02-26T03:56:20.623Z,11.24
2023-02-26T03:59:08.784Z,11.22
2023-02-26T04:02:02.667Z,11.16
2023-02-26T04:04:48.957Z,11.17
2023-02-26T04:07:18.929Z,11.12
2023-02-26T04:09:48.707Z,11.07
2023-02-26T04:12:16.270Z,11.03
2023-02-26T04:14:47.426Z,11.06
2023-02-26T04:17:14.523Z,11.04
2023-02-26T04:19:41.425Z,11.04
2023-02-26T04:22:08.572Z,11.08
2023-02-26T04:24:36.740Z,11.08
2023-02-26T04:27:04.082Z,11.06
2023-02-26T04:29:32.389Z,11.03
2023-02-26T04:31:59.642Z,10.99
2023-02-26T04:34:26.884Z,11.03
2023-02-26T04:36:54.130Z,11.06
2023-02-26T04:39:21.394Z,11.04
2023-02-26T04:41:49.011Z,11.03
2023-02-26T04:44:16.052Z,11.04
2023-02-26T04:46:45.400Z,11.05
2023-02-26T04:49:12.926Z,11.03
2023-02-26T04:51:44.200Z,11.03
2023-02-26T04:54:16.030Z,11.04
2023-02-26T04:56:43.055Z,11.04
2023-02-26T04:59:09.965Z,11.05
2023-02-26T05:01:37.103Z,11.07
2023-02-26T05:04:07.854Z,11.10
2023-02-26T05:06:35.405Z,11.05
2023-02-26T05:09:02.285Z,11.09
2023-02-26T05:11:30.668Z,11.08
2023-02-26T05:13:57.708Z,11.06
2023-02-26T05:16:24.920Z,11.07
2023-02-26T05:18:52.168Z,11.07
2023-02-26T05:21:19.770Z,11.08
2023-02-26T05:23:46.847Z,11.09
2023-02-26T05:26:13.751Z,11.09
2023-02-26T05:28:41.445Z,11.11
2023-02-26T05:31:08.785Z,11.11
2023-02-26T05:33:35.776Z,11.08
2023-02-26T05:36:02.797Z,11.06
2023-02-26T05:38:29.750Z,11.06
2023-02-26T05:40:58.321Z,11.07
2023-02-26T05:43:26.465Z,11.02
2023-02-26T05:45:54.234Z,11.00
2023-02-26T05:48:22.180Z,11.00
2023-02-26T05:50:50.590Z,11.00
2023-02-26T05:53:18.412Z,11.00
2023-02-26T05:55:45.578Z,10.98
2023-02-26T05:58:13.303Z,10.99
2023-02-26T06:00:40.261Z,10.93
2023-02-26T06:03:07.147Z,10.93
2023-02-26T06:05:36.186Z,10.95
2023-02-26T06:08:04.309Z,10.96
2023-02-26T06:10:32.803Z,10.97
2023-02-26T06:12:59.754Z,10.85
2023-02-26T06:15:26.637Z,10.89
2023-02-26T06:17:53.492Z,10.87
2023-02-26T06:20:20.539Z,10.87
2023-02-26T06:22:47.440Z,10.84
2023-02-26T06:25:14.410Z,10.85
2023-02-26T06:27:41.246Z,10.83
2023-02-26T06:30:08.820Z,10.85
2023-02-26T06:32:36.145Z,10.80
2023-02-26T06:35:03.210Z,10.79
2023-02-26T06:37:30.074Z,10.80
2023-02-26T06:39:57.036Z,10.77
2023-02-26T06:42:24.353Z,10.76
2023-02-26T06:44:51.295Z,10.76
2023-02-26T06:47:18.308Z,10.73
2023-02-26T06:49:45.206Z,10.73
2023-02-26T06:52:13.558Z,10.78
2023-02-26T06:54:40.730Z,10.78
2023-02-26T06:57:07.785Z,10.78
2023-02-26T06:59:34.723Z,10.80
2023-02-26T07:02:01.689Z,10.80
2023-02-26T07:04:28.640Z,10.79
2023-02-26T07:06:55.561Z,10.73
2023-02-26T07:09:22.545Z,10.75
2023-02-26T07:11:49.421Z,10.74
2023-02-26T07:14:17.626Z,10.75
2023-02-26T07:16:44.561Z,10.71
2023-02-26T07:19:11.496Z,10.69
2023-02-26T07:21:38.434Z,10.68
2023-02-26T07:24:05.797Z,10.69
2023-02-26T07:26:32.874Z,10.68
2023-02-26T07:28:59.775Z,10.70
2023-02-26T07:31:26.790Z,10.71
2023-02-26T07:33:54.238Z,10.72
2023-02-26T07:36:21.117Z,10.75
2023-02-26T07:38:48.015Z,10.76
2023-02-26T07:41:15.167Z,10.77
2023-02-26T07:43:42.875Z,10.64
2023-02-26T07:46:10.346Z,10.65
2023-02-26T07:48:37.328Z,10.65
2023-02-26T07:51:04.926Z,10.68
2023-02-26T07:53:31.863Z,10.70
2023-02-26T07:55:58.823Z,10.74
2023-02-26T07:58:26.096Z,10.75
2023-02-26T08:00:53.144Z,10.78
2023-02-26T08:03:20.513Z,10.78
2023-02-26T08:05:47.589Z,10.77
2023-02-26T08:08:14.744Z,10.78
2023-02-26T08:10:42.292Z,10.79
2023-02-26T08:13:09.966Z,10.76
2023-02-26T08:15:36.924Z,10.76
2023-02-26T08:18:04.289Z,10.73
2023-02-26T08:20:31.337Z,10.76
2023-02-26T08:22:58.380Z,10.78
2023-02-26T08:25:25.245Z,10.76
2023-02-26T08:27:52.235Z,10.78
2023-02-26T08:30:19.448Z,10.79
2023-02-26T08:32:46.427Z,10.82
2023-02-26T08:35:13.995Z,10.86
2023-02-26T08:37:40.839Z,10.88
2023-02-26T08:40:09.327Z,10.97
2023-02-26T08:42:36.714Z,10.97
2023-02-26T08:45:03.977Z,11.00
2023-02-26T08:47:31.980Z,11.06
2023-02-26T08:49:59.135Z,11.11
2023-02-26T08:52:26.502Z,11.10
2023-02-26T08:54:53.409Z,11.10
2023-02-26T08:57:20.390Z,11.14
2023-02-26T08:59:47.256Z,11.04
2023-02-26T09:02:14.906Z,11.07
2023-02-26T09:04:41.845Z,11.14
2023-02-26T09:07:08.821Z,11.14
2023-02-26T09:09:35.802Z,11.22
2023-02-26T09:12:02.768Z,11.32
2023-02-26T09:14:29.807Z,11.42
2023-02-26T09:16:56.791Z,11.49
2023-02-26T09:19:23.953Z,11.63
2023-02-26T09:21:50.871Z,11.70
2023-02-26T09:24:18.059Z,11.78
2023-02-26T09:26:45.034Z,11.97
2023-02-26T09:29:13.388Z,12.05
2023-02-26T09:31:40.409Z,12.18
2023-02-26T09:34:09.277Z,12.38
2023-02-26T09:36:37.673Z,12.62
2023-02-26T09:39:04.900Z,12.88
2023-02-26T09:41:39.085Z,13.08
2023-02-26T09:44:28.138Z,13.26
2023-02-26T09:47:16.726Z,13.42
2023-02-26T09:50:07.347Z,13.54
2023-02-26T09:52:38.320Z,13.54
2023-02-26T09:55:12.531Z,13.51
2023-02-26T09:57:44.548Z,13.56
2023-02-26T10:00:47.650Z,13.61
2023-02-26T10:03:22.917Z,13.44
2023-02-26T10:06:10.782Z,13.30
2023-02-26T10:08:56.019Z,13.26
2023-02-26T10:11:41.644Z,13.14
2023-02-26T10:14:19.416Z,13.08
2023-02-26T10:16:51.653Z,13.17
2023-02-26T10:19:24.186Z,13.22
2023-02-26T10:22:11.254Z,13.32
2023-02-26T10:24:43.507Z,13.77
2023-02-26T10:27:16.593Z,14.13
2023-02-26T10:29:59.992Z,14.48
2023-02-26T10:32:58.144Z,14.75
2023-02-26T10:35:29.631Z,15.03
2023-02-26T10:37:59.239Z,15.26
2023-02-26T10:40:37.305Z,15.59
2023-02-26T10:43:22.191Z,16.23
2023-02-26T10:45:52.721Z,16.44
2023-02-26T10:48:25.247Z,16.96
2023-02-26T10:50:54.666Z,17.20
2023-02-26T10:53:22.230Z,17.35
2023-02-26T10:55:51.877Z,17.60
2023-02-26T10:58:23.906Z,18.27
2023-02-26T11:00:54.455Z,18.98
2023-02-26T11:03:34.325Z,20.43
2023-02-26T11:06:06.021Z,22.20
2023-02-26T11:08:40.902Z,23.23
2023-02-26T11:11:08.113Z,23.60
2023-02-26T11:13:38.940Z,24.19
2023-02-26T11:16:15.508Z,24.37
2023-02-26T11:18:48.528Z,23.87
2023-02-26T11:21:24.741Z,23.07
2023-02-26T11:24:03.163Z,22.10
2023-02-26T11:26:34.652Z,21.52
2023-02-26T11:29:02.208Z,20.86
2023-02-26T11:31:30.532Z,20.50
2023-02-26T11:34:05.152Z,20.17
2023-02-26T11:36:34.356Z,19.97
2023-02-26T11:39:06.351Z,19.74
2023-02-26T11:41:38.416Z,19.64
2023-02-26T11:44:15.626Z,19.28
2023-02-26T11:46:51.158Z,19.22
2023-02-26T11:49:21.791Z,19.05
2023-02-26T11:52:01.898Z,18.79
2023-02-26T11:54:29.690Z,18.67
2023-02-26T11:57:21.053Z,18.85
2023-02-26T11:59:51.123Z,18.82
2023-02-26T12:02:24.547Z,18.82
2023-02-26T12:04:55.250Z,18.40
2023-02-26T12:07:22.842Z,18.48
2023-02-26T12:09:50.119Z,18.51
2023-02-26T12:12:32.648Z,18.45
2023-02-26T12:15:21.534Z,18.55
2023-02-26T12:17:51.245Z,18.56
2023-02-26T12:20:25.958Z,18.34
2023-02-26T12:23:15.848Z,18.39
2023-02-26T12:26:03.586Z,18.30
2023-02-26T12:28:45.139Z,18.07
2023-02-26T12:31:33.950Z,17.98
2023-02-26T12:34:20.431Z,17.96
2023-02-26T12:36:58.264Z,17.67
2023-02-26T12:39:43.165Z,17.50
2023-02-26T12:42:26.812Z,17.75
2023-02-26T12:45:18.347Z,17.76
2023-02-26T12:48:04.457Z,17.76
2023-02-26T12:50:54.010Z,17.97
2023-02-26T12:53:39.273Z,17.83
2023-02-26T12:56:33.522Z,17.72
2023-02-26T12:59:07.787Z,17.75
2023-02-26T13:02:15.853Z,17.78
2023-02-26T13:05:36.865Z,17.89
2023-02-26T13:08:13.741Z,17.49
2023-02-26T13:11:11.279Z,17.37
2023-02-26T13:13:52.941Z,17.31
2023-02-26T13:16:39.364Z,16.75
2023-02-26T13:19:13.553Z,16.82
2023-02-26T13:21:48.951Z,17.02
2023-02-26T13:24:22.953Z,16.27
2023-02-26T13:26:51.471Z,16.21
2023-02-26T13:29:25.164Z,16.17
2023-02-26T13:32:26.023Z,16.38
2023-02-26T13:34:55.490Z,16.26
2023-02-26T13:37:33.862Z,16.30
2023-02-26T13:40:34.917Z,16.17
2023-02-26T13:43:30.037Z,15.06
2023-02-26T13:46:11.420Z,14.64
2023-02-26T13:49:10.228Z,14.25
2023-02-26T13:51:41.566Z,14.11
2023-02-26T13:54:17.431Z,13.88
2023-02-26T13:56:55.771Z,13.80
2023-02-26T13:59:31.636Z,13.72
2023-02-26T14:02:03.684Z,13.61
2023-02-26T14:04:54.074Z,13.67
2023-02-26T14:07:53.026Z,13.68
2023-02-26T14:10:33.834Z,13.45
2023-02-26T14:13:20.603Z,13.21
2023-02-26T14:16:11.794Z,12.78
2023-02-26T14:19:06.315Z,12.89
2023-02-26T14:21:33.138Z,12.95
2023-02-26T14:24:06.757Z,12.94
2023-02-26T14:26:37.097Z,12.94
2023-02-26T14:29:06.757Z,13.09
2023-02-26T14:32:05.974Z,12.96
2023-02-26T14:34:42.082Z,12.81
2023-02-26T14:37:16.269Z,13.03
2023-02-26T14:39:53.453Z,12.99
2023-02-26T14:42:27.092Z,12.89
2023-02-26T14:45:09.709Z,12.86
2023-02-26T14:47:37.901Z,12.79
2023-02-26T14:50:07.248Z,12.93
2023-02-26T14:52:47.300Z,12.95
2023-02-26T14:55:17.182Z,13.08
2023-02-26T14:58:02.374Z,12.89
2023-02-26T15:00:37.191Z,12.74
2023-02-26T15:03:16.037Z,12.73
2023-02-26T15:06:10.404Z,12.85
2023-02-26T15:08:43.439Z,12.94
2023-02-26T15:11:50.548Z,12.71
2023-02-26T15:14:29.889Z,12.65
2023-02-26T15:17:29.153Z,12.54
2023-02-26T15:20:33.922Z,12.44
2023-02-26T15:23:03.491Z,12.49
2023-02-26T15:25:40.933Z,12.50
2023-02-26T15:28:13.774Z,12.54
2023-02-26T15:30:43.816Z,12.65
2023-02-26T15:33:16.370Z,12.71
2023-02-26T15:35:44.823Z,12.58
2023-02-26T15:38:11.825Z,12.47
2023-02-26T15:40:39.466Z,12.32
2023-02-26T15:43:09.343Z,12.18
2023-02-26T15:45:43.485Z,12.30
2023-02-26T15:48:16.884Z,12.20
2023-02-26T15:50:47.876Z,12.20
2023-02-26T15:53:29.965Z,12.09
2023-02-26T15:56:00.795Z,11.92
2023-02-26T15:58:53.502Z,12.06
2023-02-26T16:01:23.799Z,12.15
2023-02-26T16:03:53.179Z,12.07
2023-02-26T16:06:25.733Z,11.91
2023-02-26T16:08:52.916Z,11.81
2023-02-26T16:11:21.547Z,11.79
2023-02-26T16:13:52.900Z,11.94
2023-02-26T16:16:28.123Z,11.93
2023-02-26T16:18:57.725Z,11.78
2023-02-26T16:21:31.449Z,11.77
2023-02-26T16:24:00.352Z,11.94
2023-02-26T16:26:32.740Z,11.72
2023-02-26T16:29:04.513Z,11.84
2023-02-26T16:31:37.269Z,11.75
2023-02-26T16:34:08.976Z,11.80
2023-02-26T16:36:41.568Z,11.92
2023-02-26T16:39:08.450Z,11.73
2023-02-26T16:41:38.576Z,11.78
2023-02-26T16:44:38.053Z,11.59
2023-02-26T16:47:05.730Z,11.46
2023-02-26T16:49:35.756Z,11.59
2023-02-26T16:52:03.647Z,11.58
2023-02-26T16:54:41.134Z,11.48
2023-02-26T16:57:19.975Z,11.45
2023-02-26T16:59:55.522Z,11.44
2023-02-26T17:02:33.111Z,11.53
2023-02-26T17:05:05.917Z,11.48
2023-02-26T17:07:36.393Z,11.42
2023-02-26T17:10:29.420Z,11.41
2023-02-26T17:13:05.058Z,11.35
2023-02-26T17:15:36.447Z,11.37
2023-02-26T17:18:04.254Z,11.33
2023-02-26T17:20:32.031Z,11.34
2023-02-26T17:23:01.481Z,11.32
2023-02-26T17:25:42.416Z,11.30
2023-02-26T17:28:16.499Z,11.32
2023-02-26T17:30:43.524Z,11.33
2023-02-26T17:33:13.744Z,11.33
2023-02-26T17:35:41.961Z,11.43
2023-02-26T17:38:13.393Z,11.34
2023-02-26T17:40:41.966Z,11.30
2023-02-26T17:43:10.185Z,11.41
2023-02-26T17:45:40.302Z,11.25
2023-02-26T17:48:08.396Z,11.38
2023-02-26T17:50:40.924Z,11.20
2023-02-26T17:53:08.866Z,11.12
2023-02-26T17:55:39.348Z,11.23
2023-02-26T17:58:08.575Z,11.40
2023-02-26T18:00:40.728Z,11.38
2023-02-26T18:03:09.976Z,11.34
2023-02-26T18:05:39.306Z,11.23
2023-02-26T18:08:06.967Z,11.19
2023-02-26T18:10:33.982Z,11.22
2023-02-26T18:13:00.899Z,11.21
2023-02-26T18:15:27.818Z,11.27
2023-02-26T18:17:54.747Z,11.29
2023-02-26T18:20:22.804Z,11.37
2023-02-26T18:22:50.578Z,11.40
2023-02-26T18:25:18.210Z,11.33
2023-02-26T18:27:47.967Z,11.31
2023-02-26T18:30:22.732Z,11.18
2023-02-26T18:32:49.577Z,11.12
2023-02-26T18:35:18.017Z,11.05
2023-02-26T18:37:45.911Z,10.98
2023-02-26T18:40:16.005Z,11.03
2023-02-26T18:42:43.544Z,11.07
2023-02-26T18:45:11.796Z,11.08
2023-02-26T18:47:39.671Z,11.07
2023-02-26T18:50:07.987Z,10.94
2023-02-26T18:52:35.803Z,10.88
2023-02-26T18:55:03.227Z,10.74
2023-02-26T18:57:30.801Z,10.65
2023-02-26T18:59:57.701Z,10.69
2023-02-26T19:02:25.166Z,10.55
2023-02-26T19:04:52.510Z,10.53
2023-02-26T19:07:19.889Z,10.54
2023-02-26T19:09:47.277Z,10.54
2023-02-26T19:12:18.882Z,10.45
2023-02-26T19:14:46.453Z,10.43
2023-02-26T19:17:13.844Z,10.47
2023-02-26T19:19:42.372Z,10.62
2023-02-26T19:22:10.642Z,10.76
2023-02-26T19:24:37.768Z,10.86
2023-02-26T19:27:04.701Z,10.93
2023-02-26T19:29:33.974Z,10.96
2023-02-26T19:32:01.300Z,10.93
2023-02-26T19:34:28.372Z,10.88
2023-02-26T19:36:56.409Z,10.70
2023-02-26T19:39:24.307Z,10.56
2023-02-26T19:41:54.363Z,10.45
2023-02-26T19:44:22.769Z,10.33
2023-02-26T19:46:50.612Z,10.28
2023-02-26T19:49:18.937Z,10.17
2023-02-26T19:51:46.274Z,10.16
2023-02-26T19:54:14.312Z,10.09
2023-02-26T19:56:43.246Z,10.00
2023-02-26T19:59:10.928Z,9.80
2023-02-26T20:01:37.929Z,9.69
2023-02-26T20:04:04.968Z,9.54
2023-02-26T20:06:32.026Z,9.50
2023-02-26T20:08:59.118Z,9.42
2023-02-26T20:11:26.820Z,9.40
2023-02-26T20:13:53.943Z,9.38
2023-02-26T20:16:20.936Z,9.37
2023-02-26T20:18:47.926Z,9.23
2023-02-26T20:21:15.422Z,9.22
2023-02-26T20:23:43.323Z,9.03
2023-02-26T20:26:15.563Z,9.04
2023-02-26T20:28:43.530Z,9.00
2023-02-26T20:31:11.390Z,8.93
2023-02-26T20:33:39.825Z,8.95
2023-02-26T20:36:10.483Z,8.86
2023-02-26T20:38:38.557Z,8.84
2023-02-26T20:41:05.893Z,8.92
2023-02-26T20:43:33.472Z,8.86
2023-02-26T20:46:00.557Z,8.93
2023-02-26T20:48:27.566Z,8.94
2023-02-26T20:51:00.392Z,8.92
2023-02-26T20:53:28.060Z,8.96
2023-02-26T20:55:57.257Z,8.90
2023-02-26T20:58:26.198Z,8.92
2023-02-26T21:00:58.053Z,8.97
2023-02-26T21:03:26.235Z,8.99
2023-02-26T21:05:54.417Z,9.05
2023-02-26T21:08:24.258Z,9.09
2023-02-26T21:10:52.379Z,9.08
2023-02-26T21:13:20.028Z,9.14
2023-02-26T21:15:50.995Z,9.17
2023-02-26T21:18:18.343Z,9.18
2023-02-26T21:20:45.337Z,9.22
2023-02-26T21:23:12.444Z,9.24
2023-02-26T21:25:40.185Z,9.12
2023-02-26T21:28:07.569Z,8.84
2023-02-26T21:30:36.282Z,8.39
2023-02-26T21:33:03.696Z,8.19
2023-02-26T21:35:32.109Z,8.34
2023-02-26T21:38:00.569Z,8.49
2023-02-26T21:40:28.346Z,8.59
2023-02-26T21:42:55.326Z,8.49
2023-02-26T21:45:22.241Z,8.20
2023-02-26T21:47:49.238Z,7.83
2023-02-26T21:50:16.304Z,7.16
2023-02-26T21:52:44.055Z,7.26
2023-02-26T21:55:11.694Z,7.10
2023-02-26T21:57:38.942Z,6.87
2023-02-26T22:00:10.288Z,6.61
2023-02-26T22:02:40.449Z,6.57
2023-02-26T22:05:07.655Z,6.69
2023-02-26T22:07:34.776Z,6.80
2023-02-26T22:10:01.776Z,6.76
2023-02-26T22:12:28.662Z,6.67
2023-02-26T22:14:55.991Z,6.68
2023-02-26T22:17:23.626Z,6.92
2023-02-26T22:19:51.743Z,7.04
2023-02-26T22:22:19.021Z,7.16
2023-02-26T22:24:46.003Z,7.32
2023-02-26T22:27:13.039Z,7.39
2023-02-26T22:29:40.119Z,7.27
2023-02-26T22:32:07.346Z,7.17
2023-02-26T22:34:34.556Z,7.34
2023-02-26T22:37:01.809Z,7.44
2023-02-26T22:39:28.852Z,7.51
2023-02-26T22:41:55.767Z,7.64
2023-02-26T22:44:22.745Z,7.76
2023-02-26T22:46:50.136Z,7.83
2023-02-26T22:49:18.163Z,7.87
2023-02-26T22:51:46.002Z,7.96
2023-02-26T22:54:13.097Z,8.02
2023-02-26T22:56:40.059Z,8.10
2023-02-26T22:59:06.948Z,8.15
2023-02-26T23:01:33.976Z,8.21
2023-02-26T23:04:01.012Z,8.20
2023-02-26T23:06:27.985Z,8.20
2023-02-26T23:08:54.866Z,8.07
2023-02-26T23:11:21.839Z,7.91
2023-02-26T23:13:48.772Z,7.59
2023-02-26T23:16:16.002Z,7.24
2023-02-26T23:18:45.621Z,7.38
2023-02-26T23:21:12.650Z,7.14
2023-02-26T23:23:39.874Z,6.94
2023-02-26T23:26:07.611Z,6.74
2023-02-26T23:28:35.200Z,6.64
2023-02-26T23:31:02.541Z,6.63
2023-02-26T23:33:29.443Z,6.72
2023-02-26T23:35:56.925Z,6.85
2023-02-26T23:38:23.976Z,6.65
2023-02-26T23:40:51.053Z,6.54
2023-02-26T23:43:18.162Z,6.72
2023-02-26T23:45:45.135Z,6.85
2023-02-26T23:48:12.030Z,6.81
2023-02-26T23:50:39.013Z,6.78
2023-02-26T23:53:06.194Z,6.79
2023-02-26T23:55:33.179Z,6.86
2023-02-26T23:58:00.149Z,6.99
